Time;durP1;ratioP1;P1;durP2;ratioP2;P2;SDS_P1;SDS_P2;PMS_P1;PMS_P2;Temp;Humidity;BMP_temperature;BMP_pressure;BME280_temperature;BME280_humidity;BME280_pressure;Samples;Min_cycle;Max_cycle;Signal;HPM_P1;HPM_P2
2022/06/08 00:00:32;;;;;;;12.27;6.80;;;18.60;99.90;;;;;;4977400;28;20193;-82
2022/06/08 00:03:32;;;;;;;8.37;6.67;;;18.60;99.90;;;;;;4993060;28;20296;-74
2022/06/08 00:05:59;;;;;;;10.90;7.37;;;18.40;99.90;;;;;;4976857;28;20830;-74
2022/06/08 00:08:35;;;;;;;10.60;7.73;;;18.30;99.90;;;;;;4993200;28;20192;-83
2022/06/08 00:11:06;;;;;;;10.60;7.90;;;18.20;99.90;;;;;;4977257;28;20250;-82
2022/06/08 00:13:38;;;;;;;11.23;7.93;;;18.10;99.90;;;;;;4978156;28;20204;-81
2022/06/08 00:16:13;;;;;;;11.73;8.17;;;17.90;99.90;;;;;;4992781;28;20267;-83
2022/06/08 00:18:42;;;;;;;9.77;8.07;;;17.80;99.90;;;;;;4976822;28;20197;-83
2022/06/08 00:21:09;;;;;;;13.57;8.90;;;17.80;99.90;;;;;;4993245;28;20276;-86
2022/06/08 00:23:36;;;;;;;10.17;7.77;;;17.80;99.90;;;;;;4995103;28;20228;-76
2022/06/08 00:26:10;;;;;;;12.33;9.27;;;17.80;99.90;;;;;;4977068;28;20200;-79
2022/06/08 00:28:45;;;;;;;10.83;8.60;;;17.90;99.90;;;;;;4976783;28;20271;-83
2022/06/08 00:31:14;;;;;;;14.27;9.97;;;17.80;99.90;;;;;;4992893;28;20208;-77
2022/06/08 00:33:41;;;;;;;15.07;9.90;;;17.80;99.90;;;;;;4976467;28;20221;-80
2022/06/08 00:36:09;;;;;;;11.17;9.70;;;17.70;99.90;;;;;;4992459;28;20574;-74
2022/06/08 00:38:36;;;;;;;13.23;10.83;;;17.60;99.90;;;;;;4993092;28;20308;-86
2022/06/08 00:41:18;;;;;;;18.40;11.20;;;17.60;99.90;;;;;;4992435;28;20197;-78
2022/06/08 00:43:54;;;;;;;16.40;12.47;;;17.70;99.90;;;;;;4992444;28;20632;-74
2022/06/08 00:46:27;;;;;;;16.37;12.53;;;17.70;99.90;;;;;;4976267;28;20193;-81
2022/06/08 00:48:59;;;;;;;24.30;13.43;;;17.60;99.90;;;;;;4976607;28;20220;-81
2022/06/08 00:51:28;;;;;;;21.07;13.20;;;17.60;99.90;;;;;;4993024;28;20235;-76
2022/06/08 00:53:59;;;;;;;18.40;14.43;;;17.70;99.90;;;;;;4976570;28;20295;-79
2022/06/08 00:56:34;;;;;;;22.80;14.17;;;17.70;99.90;;;;;;4980885;28;20292;-83
2022/06/08 00:59:04;;;;;;;23.67;15.13;;;17.70;99.90;;;;;;4982414;28;20288;-80
2022/06/08 01:01:34;;;;;;;19.60;14.50;;;17.80;99.90;;;;;;4976893;28;20863;-81
2022/06/08 01:04:20;;;;;;;19.33;14.73;;;17.70;99.90;;;;;;4979503;28;20288;-81
2022/06/08 01:06:57;;;;;;;18.10;14.50;;;17.70;99.90;;;;;;4976431;28;20581;-78
2022/06/08 01:09:39;;;;;;;22.97;13.80;;;17.80;99.90;;;;;;4977437;28;20225;-80
2022/06/08 01:12:17;;;;;;;20.70;15.33;;;17.80;99.90;;;;;;4989006;28;20196;-79
2022/06/08 01:14:47;;;;;;;20.63;14.10;;;17.90;99.90;;;;;;4994575;28;20646;-83
2022/06/08 01:17:18;;;;;;;18.87;14.30;;;17.90;99.90;;;;;;4992384;28;20239;-77
2022/06/08 01:19:47;;;;;;;22.83;14.03;;;17.90;99.90;;;;;;4991943;28;20204;-83
2022/06/08 01:22:17;;;;;;;17.10;12.97;;;17.90;99.90;;;;;;4993194;28;20305;-81
2022/06/08 01:24:47;;;;;;;17.33;13.23;;;17.90;99.90;;;;;;4975460;28;20211;-81
2022/06/08 01:27:23;;;;;;;18.57;13.67;;;17.90;99.90;;;;;;4992376;28;20292;-83
2022/06/08 01:30:09;;;;;;;19.67;13.47;;;17.90;99.90;;;;;;4993377;28;20270;-77
2022/06/08 01:32:55;;;;;;;20.73;13.43;;;17.90;99.90;;;;;;4993239;28;20239;-84
2022/06/08 01:35:43;;;;;;;20.40;13.27;;;17.90;99.90;;;;;;4991643;28;20233;-81
2022/06/08 01:38:29;;;;;;;23.17;14.20;;;17.90;99.90;;;;;;4993072;28;20540;-79
2022/06/08 01:41:25;;;;;;;18.70;13.47;;;17.90;99.90;;;;;;4992107;28;20252;-76
2022/06/08 01:44:05;;;;;;;18.83;13.80;;;17.90;99.90;;;;;;4993040;28;20471;-78
2022/06/08 01:46:42;;;;;;;21.37;14.60;;;17.90;99.90;;;;;;4993963;28;20646;-76
2022/06/08 01:49:23;;;;;;;19.17;14.80;;;18.00;99.90;;;;;;4995416;28;20224;-78
2022/06/08 01:52:14;;;;;;;23.27;14.87;;;17.90;99.90;;;;;;4996627;28;20204;-83
2022/06/08 01:55:06;;;;;;;18.83;14.20;;;17.80;99.90;;;;;;4979076;28;20215;-80
2022/06/08 01:57:36;;;;;;;23.30;15.27;;;17.80;99.90;;;;;;4978807;28;20193;-78
2022/06/08 02:00:09;;;;;;;21.47;14.77;;;17.80;99.90;;;;;;4995229;28;20192;-83
2022/06/08 02:02:42;;;;;;;19.03;14.40;;;17.80;99.90;;;;;;4994981;28;20197;-81
2022/06/08 02:05:21;;;;;;;25.27;14.90;;;17.80;99.90;;;;;;4978687;28;20654;-84
2022/06/08 02:08:18;;;;;;;19.83;14.07;;;17.70;99.90;;;;;;4978745;28;20630;-82
2022/06/08 02:11:00;;;;;;;19.13;14.23;;;17.70;99.90;;;;;;4996402;28;20217;-76
2022/06/08 02:13:44;;;;;;;20.03;14.93;;;17.70;99.90;;;;;;4995239;28;20200;-82
2022/06/08 02:16:21;;;;;;;20.50;14.70;;;17.70;99.90;;;;;;4978797;28;20247;-84
2022/06/08 02:19:33;;;;;;;21.33;14.03;;;17.70;99.90;;;;;;4994836;28;20626;-80
2022/06/08 02:22:14;;;;;;;23.77;15.77;;;17.70;99.90;;;;;;4978375;28;20638;-84
2022/06/08 02:24:51;;;;;;;21.97;15.23;;;17.70;99.90;;;;;;4996578;28;20177;-85
2022/06/08 02:28:03;;;;;;;21.43;16.20;;;17.60;99.90;;;;;;4995216;28;20284;-84
2022/06/08 02:30:53;;;;;;;20.77;15.03;;;17.60;99.90;;;;;;4978858;28;20213;-84
2022/06/08 02:36:19;;;;;;;22.30;15.50;;;17.60;99.90;;;;;;4994712;28;20300;-81
2022/06/08 02:39:16;;;;;;;24.20;16.77;;;17.60;99.90;;;;;;4996159;28;20239;-84
2022/06/08 02:41:46;;;;;;;24.27;16.10;;;17.60;99.90;;;;;;4978354;28;20197;-80
2022/06/08 02:44:25;;;;;;;25.17;16.43;;;17.60;99.90;;;;;;4987905;28;20321;-80
2022/06/08 02:47:18;;;;;;;20.93;15.77;;;17.60;99.90;;;;;;5006996;28;20551;-80
2022/06/08 02:49:46;;;;;;;23.70;16.07;;;17.60;99.90;;;;;;5002800;28;20236;-78
2022/06/08 02:52:24;;;;;;;23.73;15.80;;;17.60;99.90;;;;;;4998196;28;20199;-82
2022/06/08 02:54:53;;;;;;;24.10;16.43;;;17.50;99.90;;;;;;5008072;28;20185;-77
2022/06/08 02:57:23;;;;;;;22.70;15.60;;;17.50;99.90;;;;;;4982158;28;20236;-80
2022/06/08 03:00:01;;;;;;;22.00;16.03;;;17.50;99.90;;;;;;4980909;28;20201;-81
2022/06/08 03:02:38;;;;;;;22.27;15.23;;;17.50;99.90;;;;;;4977929;28;20259;-81
2022/06/08 03:05:21;;;;;;;23.50;16.50;;;17.50;99.90;;;;;;4977363;28;20210;-79
2022/06/08 03:07:53;;;;;;;26.20;16.53;;;17.30;99.90;;;;;;4977474;28;20292;-81
2022/06/08 03:10:22;;;;;;;22.63;16.37;;;17.20;99.90;;;;;;4977225;28;20228;-81
2022/06/08 03:12:58;;;;;;;23.10;17.30;;;17.20;99.90;;;;;;4993743;28;20197;-82
2022/06/08 03:15:25;;;;;;;24.83;16.60;;;17.10;99.90;;;;;;4977382;28;20646;-81
2022/06/08 03:17:52;;;;;;;23.10;15.87;;;17.10;99.90;;;;;;4977334;28;20693;-81
2022/06/08 03:20:23;;;;;;;22.23;16.30;;;17.10;99.90;;;;;;4977237;28;20292;-80
2022/06/08 03:22:50;;;;;;;22.17;16.33;;;17.20;99.90;;;;;;4993532;28;20291;-80
2022/06/08 03:25:17;;;;;;;24.60;16.53;;;17.30;99.90;;;;;;4976992;28;20712;-79
2022/06/08 03:27:46;;;;;;;24.70;17.23;;;17.30;99.90;;;;;;4993795;28;20220;-80
2022/06/08 03:30:15;;;;;;;25.30;16.37;;;17.30;99.90;;;;;;4977130;28;20295;-78
2022/06/08 03:32:43;;;;;;;22.67;16.40;;;17.30;99.90;;;;;;4976719;28;20228;-82
2022/06/08 03:35:11;;;;;;;24.60;16.87;;;17.30;99.90;;;;;;4994265;28;20215;-81
2022/06/08 03:37:38;;;;;;;27.00;18.27;;;17.20;99.90;;;;;;4994389;28;20189;-82
2022/06/08 03:40:06;;;;;;;26.20;17.57;;;17.30;99.90;;;;;;4976980;28;20211;-82
2022/06/08 03:42:37;;;;;;;24.67;18.07;;;17.40;99.90;;;;;;5004962;28;20213;-77
2022/06/08 03:45:09;;;;;;;25.27;18.23;;;17.40;99.90;;;;;;4994535;28;20658;-78
2022/06/08 03:47:54;;;;;;;28.87;18.90;;;17.50;99.90;;;;;;5007870;28;20189;-76
2022/06/08 03:50:42;;;;;;;;;;;;;;;;;;;;;
2022/06/08 03:53:26;;;;;;;26.63;18.40;;;17.70;99.90;;;;;;5002778;28;20284;-79
2022/06/08 03:55:57;;;;;;;27.30;17.90;;;17.80;99.90;;;;;;4996673;28;20225;-83
2022/06/08 03:58:26;;;;;;;25.27;17.10;;;17.90;99.90;;;;;;5000376;28;20231;-79
2022/06/08 04:00:53;;;;;;;24.33;17.00;;;17.80;99.90;;;;;;4976656;28;20213;-80
2022/06/08 04:03:21;;;;;;;23.20;16.50;;;17.90;99.90;;;;;;4982896;28;20193;-79
2022/06/08 04:05:49;;;;;;;22.20;15.00;;;18.00;99.90;;;;;;4988926;28;20301;-78
2022/06/08 04:11:43;;;;;;;21.33;14.40;;;18.20;99.90;;;;;;5002064;28;20189;-78
2022/06/08 04:14:10;;;;;;;20.20;13.97;;;18.40;99.90;;;;;;4992655;28;20681;-82
2022/06/08 04:16:37;;;;;;;19.47;12.60;;;18.40;99.90;;;;;;4994823;28;20681;-77
2022/06/08 04:19:59;;;;;;;17.20;12.27;;;18.40;99.90;;;;;;4989276;28;20209;-77
2022/06/08 04:22:33;;;;;;;16.07;12.10;;;18.60;99.90;;;;;;4992945;28;20232;-81
2022/06/08 04:28:24;;;;;;;13.17;9.70;;;18.80;99.90;;;;;;4993932;28;20251;-83
2022/06/08 04:30:52;;;;;;;13.03;10.00;;;18.90;99.90;;;;;;4977914;28;20224;-78
2022/06/08 04:33:19;;;;;;;10.23;8.17;;;19.00;99.90;;;;;;4980122;28;20237;-83
2022/06/08 04:35:47;;;;;;;11.90;8.30;;;18.90;99.90;;;;;;4996418;28;20375;-79
2022/06/08 04:38:16;;;;;;;10.17;8.00;;;18.90;99.90;;;;;;4995575;28;20203;-83
2022/06/08 04:40:44;;;;;;;11.43;8.43;;;19.00;99.90;;;;;;4997802;28;20221;-80
2022/06/08 04:43:12;;;;;;;9.10;7.70;;;19.00;99.90;;;;;;4996876;28;20208;-80
2022/06/08 04:45:42;;;;;;;11.13;7.93;;;19.10;99.90;;;;;;4983557;28;20205;-80
2022/06/08 04:48:31;;;;;;;11.67;7.87;;;19.10;99.90;;;;;;4992810;28;20201;-84
2022/06/08 04:51:04;;;;;;;12.80;8.63;;;19.00;99.90;;;;;;4994273;28;20244;-79
2022/06/08 04:53:32;;;;;;;11.80;7.70;;;19.10;99.90;;;;;;4992049;28;20677;-79
2022/06/08 04:55:59;;;;;;;10.07;7.83;;;19.00;99.90;;;;;;4995850;28;20291;-79
2022/06/08 04:58:26;;;;;;;14.97;8.20;;;19.10;99.90;;;;;;4991996;28;20205;-85
2022/06/08 05:01:02;;;;;;;9.33;6.70;;;19.10;99.90;;;;;;4982346;28;20204;-79
2022/06/08 05:03:55;;;;;;;7.23;5.80;;;19.10;99.90;;;;;;4993242;28;20304;-83
2022/06/08 05:07:08;;;;;;;7.53;6.10;;;18.90;99.90;;;;;;4924768;28;20204;-82
2022/06/08 05:09:37;;;;;;;8.73;6.10;;;19.10;99.90;;;;;;4975520;28;20287;-85
2022/06/08 05:12:12;;;;;;;7.87;6.40;;;19.10;99.90;;;;;;4995031;28;20240;-81
2022/06/08 05:14:47;;;;;;;8.57;6.40;;;19.20;99.90;;;;;;4991689;28;20217;-82
2022/06/08 05:17:40;;;;;;;9.27;6.53;;;19.20;99.90;;;;;;4993147;28;20760;-81
2022/06/08 05:20:33;;;;;;;9.13;6.63;;;19.20;99.90;;;;;;4979137;28;20216;-82
2022/06/08 05:23:07;;;;;;;10.23;6.77;;;19.30;99.90;;;;;;4978408;28;20189;-83
2022/06/08 05:25:58;;;;;;;10.70;6.67;;;19.30;99.90;;;;;;4981946;28;20256;-82
2022/06/08 05:32:21;;;;;;;11.03;7.37;;;19.30;99.90;;;;;;4899389;29;20236;-83
2022/06/08 05:38:17;;;;;;;7.93;6.20;;;19.20;99.90;;;;;;4842389;29;20339;-83
2022/06/08 05:41:06;;;;;;;7.47;5.80;;;19.20;99.90;;;;;;4830139;29;20213;-83
2022/06/08 05:43:34;;;;;;;8.30;6.10;;;19.00;99.90;;;;;;4850106;29;20234;-82
2022/06/08 05:46:04;;;;;;;7.37;6.10;;;19.20;99.90;;;;;;4843787;29;20302;-80
2022/06/08 05:48:32;;;;;;;10.13;6.70;;;19.40;99.90;;;;;;4846707;29;20711;-84
2022/06/08 05:51:02;;;;;;;9.43;7.00;;;19.40;99.90;;;;;;4844070;29;20648;-84
2022/06/08 05:53:33;;;;;;;8.87;6.70;;;19.60;99.90;;;;;;4830475;29;20194;-81
2022/06/08 05:56:01;;;;;;;8.83;6.27;;;19.80;99.90;;;;;;4827786;29;20309;-79
2022/06/08 05:58:30;;;;;;;8.13;6.50;;;20.00;99.90;;;;;;4844489;29;20198;-81
2022/06/08 06:00:58;;;;;;;9.73;6.80;;;20.40;99.90;;;;;;4845263;29;20210;-85
2022/06/08 06:03:26;;;;;;;12.50;7.23;;;20.60;99.90;;;;;;4875846;29;20204;-88
2022/06/08 06:06:30;;;;;;;7.77;6.13;;;20.70;99.90;;;;;;4903980;29;20286;-84
2022/06/08 06:09:46;;;;;;;8.07;6.40;;;20.80;99.90;;;;;;4889523;29;20223;-87
2022/06/08 06:12:44;;;;;;;9.70;6.60;;;20.90;99.90;;;;;;4905106;29;20773;-84
2022/06/08 06:15:18;;;;;;;9.67;6.43;;;20.70;99.90;;;;;;4948832;29;20210;-83
2022/06/08 06:17:45;;;;;;;10.40;6.40;;;20.60;99.90;;;;;;4956471;29;20307;-84
2022/06/08 06:20:24;;;;;;;7.00;5.67;;;20.70;99.90;;;;;;4959578;28;20292;-83
2022/06/08 06:22:52;;;;;;;9.57;5.57;;;20.60;99.90;;;;;;4954858;28;20289;-82
2022/06/08 06:25:20;;;;;;;7.63;5.43;;;20.70;99.90;;;;;;4955977;29;20642;-82
2022/06/08 06:27:47;;;;;;;7.70;5.93;;;20.80;99.90;;;;;;4939074;29;20611;-84
2022/06/08 06:30:15;;;;;;;8.77;5.37;;;20.90;99.90;;;;;;4956439;29;21196;-83
2022/06/08 06:32:47;;;;;;;6.63;5.17;;;20.80;99.90;;;;;;4956637;28;20634;-83
2022/06/08 06:35:25;;;;;;;6.97;5.20;;;20.90;99.90;;;;;;4956480;29;20218;-82
2022/06/08 06:37:56;;;;;;;8.03;5.60;;;20.90;99.90;;;;;;4955717;28;20201;-83
2022/06/08 06:40:23;;;;;;;10.73;5.10;;;20.90;99.90;;;;;;4977931;28;20740;-82
2022/06/08 06:43:00;;;;;;;6.67;5.00;;;20.90;99.90;;;;;;4980512;28;20209;-82
2022/06/08 06:45:37;;;;;;;9.80;4.97;;;20.80;99.90;;;;;;4995908;28;20215;-81
2022/06/08 06:48:08;;;;;;;7.97;4.90;;;20.80;99.90;;;;;;4997250;28;20599;-82
2022/06/08 06:51:11;;;;;;;8.47;5.60;;;20.80;99.90;;;;;;4992453;28;20699;-82
2022/06/08 06:53:39;;;;;;;8.27;5.60;;;20.80;99.90;;;;;;4994687;28;20646;-81
2022/06/08 07:00:36;;;;;;;7.60;4.80;;;20.80;99.90;;;;;;4936891;29;20247;-83
2022/06/08 07:03:04;;;;;;;7.13;4.20;;;21.00;99.90;;;;;;4939011;28;20202;-81
2022/06/08 07:05:47;;;;;;;7.00;4.43;;;21.10;99.90;;;;;;4951316;28;20224;-81
2022/06/08 07:08:14;;;;;;;7.20;4.40;;;21.20;99.90;;;;;;4978052;28;20201;-81
2022/06/08 07:11:32;;;;;;;7.37;3.70;;;21.40;99.90;;;;;;4978153;28;20229;-83
2022/06/08 07:13:41;;;;;;;5.17;4.10;;;21.50;99.90;;;;;;4996883;28;20180;-83
2022/06/08 07:16:08;;;;;;;11.10;5.23;;;21.50;99.90;;;;;;4978089;28;20267;-82
2022/06/08 07:18:44;;;;;;;5.50;4.80;;;21.20;99.90;;;;;;4980565;28;20204;-81
2022/06/08 07:21:22;;;;;;;6.40;4.20;;;21.30;99.90;;;;;;4978261;28;20215;-80
2022/06/08 07:23:52;;;;;;;6.43;3.80;;;21.40;99.90;;;;;;4996260;28;20602;-83
2022/06/08 07:26:28;;;;;;;5.70;4.03;;;21.50;99.90;;;;;;4998855;28;20247;-88
2022/06/08 07:28:59;;;;;;;8.00;4.60;;;21.60;99.90;;;;;;4996240;28;20215;-84
2022/06/08 07:31:30;;;;;;;5.37;4.00;;;21.80;99.90;;;;;;4998051;28;20204;-84
2022/06/08 07:33:57;;;;;;;5.77;3.50;;;21.90;99.90;;;;;;4976882;28;20228;-84
2022/06/08 07:36:24;;;;;;;7.03;5.67;;;22.20;99.90;;;;;;4995940;28;20236;-84
2022/06/08 07:39:10;;;;;;;7.43;5.47;;;22.30;99.90;;;;;;4977643;28;20658;-83
2022/06/08 07:41:49;;;;;;;6.07;5.20;;;22.00;99.90;;;;;;4992982;28;20236;-84
2022/06/08 07:44:21;;;;;;;8.53;5.30;;;22.20;99.90;;;;;;4975757;28;20549;-83
2022/06/08 07:47:16;;;;;;;7.80;4.93;;;22.30;99.90;;;;;;4991784;28;20272;-84
2022/06/08 07:50:05;;;;;;;6.10;5.23;;;22.40;99.90;;;;;;4993549;28;20196;-83
2022/06/08 07:53:15;;;;;;;9.37;6.13;;;22.40;99.90;;;;;;4952419;29;20210;-83
2022/06/08 07:55:57;;;;;;;9.17;6.27;;;22.10;99.90;;;;;;4953382;29;20248;-83
2022/06/08 07:59:33;;;;;;;11.43;6.60;;;21.90;99.90;;;;;;4955377;29;20208;-83
2022/06/08 08:02:38;;;;;;;7.40;5.37;;;21.60;99.90;;;;;;4953512;29;20198;-85
2022/06/08 08:05:19;;;;;;;7.33;5.20;;;21.60;99.90;;;;;;4957960;29;20198;-85
2022/06/08 08:08:02;;;;;;;6.03;4.80;;;21.60;99.90;;;;;;4955703;29;20253;-85
2022/06/08 08:13:55;;;;;;;9.00;4.83;;;21.90;99.90;;;;;;4937430;29;20226;-83
2022/06/08 08:16:31;;;;;;;7.00;4.10;;;22.10;99.90;;;;;;4954311;29;20202;-82
2022/06/08 08:19:11;;;;;;;7.47;4.13;;;22.40;99.90;;;;;;4939030;29;20224;-83
2022/06/08 08:21:46;;;;;;;5.90;4.20;;;22.70;99.90;;;;;;4954622;29;20562;-81
2022/06/08 08:24:36;;;;;;;12.13;5.57;;;23.10;99.90;;;;;;4953807;29;20210;-82
2022/06/08 08:27:17;;;;;;;7.63;5.60;;;23.30;99.90;;;;;;4952203;29;20202;-85
2022/06/08 08:29:44;;;;;;;9.85;5.40;;;23.10;99.90;;;;;;4967490;28;20765;-83
2022/06/08 08:35:56;;;;;;;6.65;4.90;;;23.70;99.90;;;;;;4993108;28;20192;-83
2022/06/08 08:39:03;;;;;;;6.57;4.77;;;24.10;99.90;;;;;;4993955;28;20279;-83
2022/06/08 08:44:59;;;;;;;16.80;5.35;;;24.50;99.90;;;;;;4976870;28;20193;-84
2022/06/08 08:48:20;;;;;;;6.43;4.88;;;24.80;99.90;;;;;;4975540;28;20557;-82
2022/06/08 08:51:21;;;;;;;6.88;4.60;;;24.90;99.90;;;;;;4977173;28;20308;-82
2022/06/08 08:54:10;;;;;;;6.57;4.88;;;25.40;99.90;;;;;;4977977;28;20192;-83
2022/06/08 08:57:09;;;;;;;6.38;4.80;;;25.80;99.90;;;;;;4998588;28;20203;-86
2022/06/08 08:59:48;;;;;;;6.40;5.03;;;26.50;99.90;;;;;;4981523;28;20197;-82
2022/06/08 09:05:32;;;;;;;7.07;4.88;;;27.40;99.90;;;;;;4981431;28;20199;-84
2022/06/08 09:08:00;;;;;;;7.60;4.43;;;27.40;99.90;;;;;;4985339;28;20204;-79
2022/06/08 09:10:28;;;;;;;5.20;4.25;;;27.30;99.90;;;;;;4979927;28;20201;-80
2022/06/08 09:13:08;;;;;;;8.70;4.85;;;27.30;99.90;;;;;;4979842;28;20259;-80
2022/06/08 09:15:48;;;;;;;10.40;5.18;;;27.60;99.90;;;;;;4997688;28;20528;-80
2022/06/08 09:18:42;;;;;;;6.78;4.40;;;27.40;99.90;;;;;;4997546;28;20189;-82
2022/06/08 09:21:33;;;;;;;6.10;4.13;;;27.40;99.90;;;;;;4979292;28;20283;-77
2022/06/08 09:24:08;;;;;;;5.95;4.25;;;27.00;99.90;;;;;;4997798;28;20617;-90
2022/06/08 09:26:44;;;;;;;5.90;4.20;;;26.70;99.90;;;;;;4997825;28;20565;-81
2022/06/08 09:29:26;;;;;;;7.47;4.93;;;26.50;99.90;;;;;;4998857;28;20189;-83
2022/06/08 09:32:19;;;;;;;7.15;5.40;;;26.20;99.90;;;;;;4982857;28;20243;-84
2022/06/08 09:35:04;;;;;;;8.73;5.60;;;25.90;99.90;;;;;;4997888;28;20221;-79
2022/06/08 09:37:36;;;;;;;7.50;5.45;;;25.50;99.90;;;;;;4997852;28;20189;-83
2022/06/08 09:40:36;;;;;;;8.13;5.70;;;25.90;99.90;;;;;;4979642;28;20220;-83
2022/06/08 09:43:20;;;;;;;7.72;5.88;;;25.90;99.90;;;;;;4998493;28;20197;-84
2022/06/08 09:46:21;;;;;;;8.48;6.13;;;25.60;99.90;;;;;;4978805;28;20216;-80
2022/06/08 09:52:27;;;;;;;8.57;6.45;;;26.30;99.90;;;;;;4997654;28;20220;-79
2022/06/08 09:55:23;;;;;;;8.77;6.82;;;26.50;99.90;;;;;;4996283;28;20189;-81
2022/06/08 09:58:10;;;;;;;7.93;6.57;;;26.20;99.90;;;;;;4997691;28;20246;-80
2022/06/08 10:01:01;;;;;;;7.65;6.20;;;25.70;99.90;;;;;;4978740;28;20208;-81
2022/06/08 10:04:24;;;;;;;8.32;6.70;;;25.90;99.90;;;;;;4994391;28;20232;-83
2022/06/08 10:07:19;;;;;;;7.97;6.07;;;25.80;99.90;;;;;;4978538;28;20196;-81
2022/06/08 10:10:17;;;;;;;8.88;6.53;;;26.60;99.90;;;;;;4981000;28;20560;-82
2022/06/08 10:13:00;;;;;;;8.45;6.03;;;26.60;99.90;;;;;;4996327;28;20220;-83
2022/06/08 10:15:43;;;;;;;8.00;6.20;;;26.30;99.90;;;;;;4995301;28;20193;-80
2022/06/08 10:18:19;;;;;;;9.85;6.50;;;26.70;99.90;;;;;;4978810;28;20197;-81
2022/06/08 10:21:02;;;;;;;8.23;6.13;;;26.90;99.90;;;;;;4997331;28;20232;-80
2022/06/08 10:23:58;;;;;;;7.30;6.20;;;27.10;99.90;;;;;;4998896;28;20542;-82
2022/06/08 10:26:36;;;;;;;9.68;6.78;;;27.10;99.90;;;;;;4997705;28;20252;-82
2022/06/08 10:29:16;;;;;;;10.25;6.28;;;27.20;99.90;;;;;;4980116;28;20201;-82
2022/06/08 10:32:21;;;;;;;7.40;5.85;;;27.00;99.90;;;;;;4996055;28;20209;-79
2022/06/08 10:35:53;;;;;;;7.60;6.22;;;26.90;99.90;;;;;;4994091;28;20380;-78
2022/06/08 10:38:28;;;;;;;8.45;6.28;;;26.40;99.90;;;;;;4920069;29;20290;-86
2022/06/08 10:41:03;;;;;;;10.00;5.88;;;26.60;99.90;;;;;;4935676;29;20568;-80
2022/06/08 10:43:36;;;;;;;7.97;6.30;;;26.80;99.90;;;;;;4935796;29;20199;-86
2022/06/08 10:46:45;;;;;;;8.48;6.70;;;27.00;99.90;;;;;;4919327;29;20210;-83
2022/06/08 10:50:10;;;;;;;9.45;6.95;;;27.40;99.90;;;;;;4936023;29;20608;-81
2022/06/08 10:52:39;;;;;;;9.50;6.93;;;27.70;99.90;;;;;;4882552;29;20721;-84
2022/06/08 10:55:52;;;;;;;8.13;6.10;;;27.90;99.90;;;;;;4880874;29;20201;-78
2022/06/08 10:59:19;;;;;;;10.13;7.00;;;28.30;99.90;;;;;;4876122;29;20212;-83
2022/06/08 11:02:12;;;;;;;8.60;6.57;;;28.90;99.90;;;;;;4879093;29;20256;-84
2022/06/08 11:04:57;;;;;;;7.18;5.40;;;29.30;99.90;;;;;;4884035;29;20587;-77
2022/06/08 11:07:25;;;;;;;7.30;5.50;;;29.70;99.90;;;;;;4881526;29;20208;-84
2022/06/08 11:09:57;;;;;;;7.32;5.80;;;30.00;99.90;;;;;;4879439;29;20291;-83
2022/06/08 11:12:35;;;;;;;7.50;6.40;;;29.90;99.90;;;;;;4878754;29;20228;-81
2022/06/08 11:15:14;;;;;;;8.73;7.00;;;29.80;99.90;;;;;;4922405;29;20812;-83
2022/06/08 11:17:52;;;;;;;9.40;7.22;;;29.10;99.90;;;;;;4937699;29;20691;-84
2022/06/08 11:20:41;;;;;;;10.68;7.40;;;28.40;99.90;;;;;;4937026;29;20206;-79
2022/06/08 11:23:24;;;;;;;9.02;7.15;;;28.20;99.90;;;;;;4967647;28;20213;-83
2022/06/08 11:26:23;;;;;;;11.38;8.27;;;28.10;99.90;;;;;;4981619;28;20263;-83
2022/06/08 11:29:23;;;;;;;12.77;7.65;;;28.00;99.90;;;;;;4936001;29;20238;-81
2022/06/08 11:31:54;;;;;;;9.73;7.93;;;28.00;99.90;;;;;;4935411;29;20318;-82
2022/06/08 11:34:21;;;;;;;10.85;7.88;;;27.80;99.90;;;;;;4936060;29;20666;-83
2022/06/08 11:36:57;;;;;;;9.52;7.20;;;27.50;99.90;;;;;;4919359;29;20257;-82
2022/06/08 11:39:40;;;;;;;9.68;6.72;;;27.70;99.90;;;;;;4936681;29;20731;-83
2022/06/08 11:42:31;;;;;;;8.18;6.88;;;27.80;99.90;;;;;;4935061;29;20194;-78
2022/06/08 11:45:19;;;;;;;11.05;7.38;;;27.90;99.90;;;;;;4918493;29;20630;-80
2022/06/08 11:48:27;;;;;;;14.32;6.50;;;27.30;99.90;;;;;;4918908;29;20223;-82
2022/06/08 11:51:00;;;;;;;12.50;6.43;;;27.50;99.90;;;;;;4937736;29;20210;-83
2022/06/08 11:53:43;;;;;;;8.90;6.18;;;27.50;99.90;;;;;;4934920;29;20335;-81
2022/06/08 11:56:37;;;;;;;8.30;5.78;;;27.60;99.90;;;;;;4921542;29;20203;-81
2022/06/08 11:59:06;;;;;;;10.00;6.95;;;28.10;99.90;;;;;;4935101;29;20215;-81
2022/06/08 12:01:46;;;;;;;9.23;6.90;;;28.10;99.90;;;;;;4919612;29;20277;-82
2022/06/08 12:04:34;;;;;;;8.68;6.95;;;27.60;99.90;;;;;;4934444;29;20183;-81
2022/06/08 12:08:09;;;;;;;;;;;;;;;;;;;;;
2022/06/08 12:11:25;;;;;;;8.13;6.40;;;26.00;99.90;;;;;;4955358;28;20203;-80
2022/06/08 12:14:49;;;;;;;8.88;6.60;;;25.50;99.90;;;;;;4931690;29;20202;-80
2022/06/08 12:17:19;;;;;;;10.35;6.85;;;25.00;99.90;;;;;;4964077;28;20197;-79
2022/06/08 12:19:51;;;;;;;10.70;6.70;;;24.70;99.90;;;;;;4994364;28;20588;-81
2022/06/08 12:22:34;;;;;;;9.77;6.85;;;24.90;99.90;;;;;;4996675;28;20251;-77
2022/06/08 12:25:09;;;;;;;10.98;7.20;;;24.70;99.90;;;;;;4976321;28;20216;-79
2022/06/08 12:28:19;;;;;;;11.27;6.40;;;24.60;99.90;;;;;;4935485;29;20199;-80
2022/06/08 12:30:57;;;;;;;9.20;6.95;;;24.80;99.90;;;;;;4968288;28;20237;-80
2022/06/08 12:33:42;;;;;;;7.30;5.90;;;24.90;99.90;;;;;;4988138;28;20232;-83
2022/06/08 12:36:31;;;;;;;9.68;6.78;;;24.60;99.90;;;;;;4994089;28;20223;-81
2022/06/08 12:39:27;;;;;;;8.25;5.72;;;24.50;99.90;;;;;;4995226;28;20185;-80
2022/06/08 12:42:22;;;;;;;7.53;6.05;;;24.50;99.90;;;;;;4977322;28;20220;-81
2022/06/08 12:44:55;;;;;;;10.13;6.57;;;24.50;99.90;;;;;;4993907;28;20210;-83
2022/06/08 12:47:29;;;;;;;10.10;6.97;;;24.20;99.90;;;;;;4996406;28;20796;-81
2022/06/08 12:50:14;;;;;;;9.88;6.90;;;24.00;99.90;;;;;;4992747;28;20629;-83
2022/06/08 12:52:50;;;;;;;8.73;6.40;;;24.10;99.90;;;;;;4993321;28;20578;-80
2022/06/08 12:56:23;;;;;;;10.05;7.15;;;24.10;99.90;;;;;;4991307;28;20204;-79
2022/06/08 12:59:17;;;;;;;9.50;6.78;;;24.00;99.90;;;;;;4915785;29;20207;-81
2022/06/08 13:02:26;;;;;;;11.15;7.43;;;24.20;99.90;;;;;;4898755;29;20908;-80
2022/06/08 13:05:01;;;;;;;11.10;8.10;;;24.20;99.90;;;;;;4914619;29;20196;-79
2022/06/08 13:07:42;;;;;;;9.80;7.70;;;24.00;99.90;;;;;;4915015;29;20669;-80
2022/06/08 13:10:12;;;;;;;10.88;8.85;;;24.10;99.90;;;;;;4914261;29;20212;-78
2022/06/08 13:13:03;;;;;;;13.18;11.02;;;24.30;99.90;;;;;;4898697;29;20599;-78
2022/06/08 13:15:39;;;;;;;14.52;10.80;;;24.10;99.90;;;;;;4914945;29;20203;-77
2022/06/08 13:18:35;;;;;;;11.95;9.88;;;24.00;99.90;;;;;;4935557;29;20203;-79
2022/06/08 13:21:17;;;;;;;11.97;9.60;;;24.00;99.90;;;;;;4933851;29;20218;-77
2022/06/08 13:23:44;;;;;;;14.23;9.65;;;24.00;99.90;;;;;;4917484;29;20205;-78
2022/06/08 13:26:19;;;;;;;12.65;10.63;;;24.10;99.90;;;;;;4933347;29;20262;-81
2022/06/08 13:28:47;;;;;;;12.93;10.43;;;24.20;99.90;;;;;;4917541;29;20195;-75
2022/06/08 13:31:26;;;;;;;12.80;10.27;;;24.10;99.90;;;;;;4933148;29;20206;-76
2022/06/08 13:33:58;;;;;;;15.52;10.50;;;23.90;99.90;;;;;;4913616;29;20282;-76
2022/06/08 13:36:52;;;;;;;12.75;10.05;;;23.50;99.90;;;;;;4962319;28;20206;-80
2022/06/08 13:39:32;;;;;;;13.05;9.90;;;23.20;99.90;;;;;;4973857;28;20206;-78
2022/06/08 13:42:47;;;;;;;11.35;10.15;;;23.00;99.90;;;;;;4958147;28;20202;-76
2022/06/08 13:45:37;;;;;;;18.07;10.90;;;22.80;99.90;;;;;;4920527;29;20222;-78
2022/06/08 13:48:28;;;;;;;;;;;;;;;;;;;;;
2022/06/08 13:51:06;;;;;;;;;;;;;;;;;;;;;
2022/06/08 13:53:41;;;;;;;12.77;9.70;;;22.40;99.90;;;;;;4909828;29;20226;-80
2022/06/08 13:56:40;;;;;;;;;;;;;;;;;;;;;
2022/06/08 13:59:48;;;;;;;12.33;9.50;;;21.90;99.90;;;;;;4945253;28;20210;-81
2022/06/08 14:19:25;;;;;;;14.37;10.27;;;20.00;99.90;;;;;;4823147;29;20198;-88
2022/06/08 14:22:04;;;;;;;25.63;14.17;;;20.00;99.90;;;;;;4864587;29;20225;-91
2022/06/08 14:24:55;;;;;;;15.80;11.07;;;20.00;99.90;;;;;;4861077;29;20297;-88
2022/06/08 14:27:35;;;;;;;13.97;9.73;;;20.00;99.90;;;;;;4862941;29;20211;-91
2022/06/08 14:30:16;;;;;;;14.47;10.43;;;20.00;99.90;;;;;;4861419;29;20241;-81
2022/06/08 14:33:19;;;;;;;;;;;;;;;;;;;;;
2022/06/08 14:36:45;;;;;;;14.73;11.43;;;20.10;99.90;;;;;;4843427;29;20210;-90
2022/06/08 14:40:56;;;;;;;16.53;11.90;;;20.00;99.90;;;;;;4825732;29;20225;-81
2022/06/08 14:44:33;;;;;;;16.50;13.10;;;20.10;99.90;;;;;;4822746;29;20327;-86
2022/06/08 14:51:15;;;;;;;15.97;12.77;;;20.40;99.90;;;;;;4823929;29;20681;-90
2022/06/08 14:54:24;;;;;;;23.90;17.30;;;20.60;99.90;;;;;;4794587;29;20212;-90
2022/06/08 14:57:03;;;;;;;17.00;12.77;;;20.60;99.90;;;;;;4889640;29;20232;-83
2022/06/08 14:59:33;;;;;;;12.60;10.50;;;20.80;99.90;;;;;;4884093;29;20192;-90